BLX701 ESSA-EDDM
Flight info
| Callsign | BLX701 |
|---|---|
| Flight time | 1h 46m |
| Altitude | 34000 |
| Route | NOSLI N850 ABAMA DCT BEDOS DCT BIKRU DCT CIPPI DCT POGAB Z36 BEBKU DCT MAREM DCT BALTU DCT VESUB T106 TUSTO T108 LANDU LANDU2A |
| Aircraft | B38M/M-SDE1FGHILORVWXY/HB1 |
Departure
| Time | 2026-05-01 09:00 |
|---|---|
| Airport | Stockholm-Arlanda Airport (ESSA) |
Arrival
| Time | 2026-05-01 10:47 |
|---|---|
| Airport | Munich Airport (EDDM) |
| Time | Latitude | Longitude | Altitude | Speed | Heading |
|---|---|---|---|---|---|
| 2026-05-01 08:40 | 59.65199 | 17.93016 | 114 ft | 0 kts | 70° |
| 2026-05-01 08:48 | 59.65198 | 17.93011 | 114 ft | 2 kts | 70° |
| 2026-05-01 08:49 | 59.65191 | 17.92972 | 111 ft | 4 kts | 81° |
| 2026-05-01 08:49 | 59.65197 | 17.92928 | 111 ft | 4 kts | 122° |
| 2026-05-01 08:49 | 59.65207 | 17.92888 | 111 ft | 3 kts | 109° |
| 2026-05-01 08:49 | 59.65216 | 17.92839 | 111 ft | 3 kts | 109° |
| 2026-05-01 08:50 | 59.65223 | 17.92799 | 112 ft | 4 kts | 109° |
| 2026-05-01 08:50 | 59.65231 | 17.92750 | 112 ft | 4 kts | 109° |
| 2026-05-01 08:50 | 59.65234 | 17.92732 | 114 ft | 0 kts | 109° |
| 2026-05-01 08:52 | 59.65232 | 17.92746 | 114 ft | 2 kts | 103° |
| 2026-05-01 08:52 | 59.65282 | 17.92783 | 113 ft | 12 kts | 340° |
| 2026-05-01 08:52 | 59.65383 | 17.92680 | 113 ft | 22 kts | 332° |
| 2026-05-01 08:53 | 59.65554 | 17.92516 | 107 ft | 30 kts | 345° |
| 2026-05-01 08:53 | 59.65763 | 17.92420 | 107 ft | 31 kts | 352° |
| 2026-05-01 08:53 | 59.65908 | 17.92381 | 110 ft | 16 kts | 290° |
| 2026-05-01 08:53 | 59.65925 | 17.92190 | 116 ft | 12 kts | 276° |
| 2026-05-01 08:54 | 59.65878 | 17.92100 | 115 ft | 10 kts | 191° |
| 2026-05-01 08:54 | 59.65768 | 17.92060 | 112 ft | 32 kts | 190° |
| 2026-05-01 08:54 | 59.65350 | 17.91907 | 107 ft | 89 kts | 190° |
| 2026-05-01 08:54 | 59.64582 | 17.91633 | 113 ft | 133 kts | 190° |
| 2026-05-01 08:55 | 59.63958 | 17.91407 | 112 ft | 10 kts | 191° |
| 2026-05-01 08:55 | 59.63899 | 17.91383 | 112 ft | 14 kts | 191° |
| 2026-05-01 08:55 | 59.63846 | 17.91362 | 109 ft | 16 kts | 191° |
| 2026-05-01 08:55 | 59.63743 | 17.91389 | 112 ft | 15 kts | 132° |
| 2026-05-01 08:56 | 59.63751 | 17.91562 | 109 ft | 14 kts | 35° |
| 2026-05-01 08:56 | 59.63828 | 17.91682 | 109 ft | 14 kts | 40° |
| 2026-05-01 08:56 | 59.63912 | 17.91751 | 112 ft | 12 kts | 11° |
| 2026-05-01 08:56 | 59.63990 | 17.91779 | 111 ft | 11 kts | 11° |
| 2026-05-01 08:57 | 59.64078 | 17.91812 | 114 ft | 16 kts | 10° |
| 2026-05-01 08:57 | 59.64208 | 17.91858 | 116 ft | 23 kts | 10° |
| 2026-05-01 08:57 | 59.64389 | 17.91924 | 113 ft | 30 kts | 11° |
| 2026-05-01 08:57 | 59.64622 | 17.92008 | 111 ft | 38 kts | 11° |
| 2026-05-01 08:58 | 59.64932 | 17.92125 | 109 ft | 49 kts | 9° |
| 2026-05-01 08:58 | 59.65266 | 17.92242 | 109 ft | 49 kts | 10° |
| 2026-05-01 08:58 | 59.65601 | 17.92362 | 107 ft | 49 kts | 10° |
| 2026-05-01 08:58 | 59.65878 | 17.92447 | 110 ft | 20 kts | 342° |
| 2026-05-01 08:59 | 59.65924 | 17.92230 | 115 ft | 16 kts | 278° |
| 2026-05-01 08:59 | 59.65913 | 17.92116 | 114 ft | 5 kts | 199° |
| 2026-05-01 08:59 | 59.65905 | 17.92112 | 117 ft | 0 kts | 192° |
| 2026-05-01 08:59 | 59.65809 | 17.92075 | 114 ft | 43 kts | 191° |
| 2026-05-01 09:00 | 59.65305 | 17.91893 | 108 ft | 102 kts | 190° |
| 2026-05-01 09:00 | 59.64436 | 17.91579 | 111 ft | 150 kts | 191° |
| 2026-05-01 09:00 | 59.63339 | 17.91147 | 388 ft | 162 kts | 192° |
| 2026-05-01 09:00 | 59.62213 | 17.90653 | 868 ft | 172 kts | 198° |
| 2026-05-01 09:01 | 59.61105 | 17.89693 | 1427 ft | 173 kts | 217° |
| 2026-05-01 09:01 | 59.60262 | 17.87986 | 1919 ft | 180 kts | 240° |
| 2026-05-01 09:01 | 59.59686 | 17.85669 | 2234 ft | 198 kts | 246° |
| 2026-05-01 09:01 | 59.59056 | 17.83055 | 2483 ft | 222 kts | 246° |
| 2026-05-01 09:02 | 59.58381 | 17.80382 | 3290 ft | 222 kts | 245° |
| 2026-05-01 09:02 | 59.57651 | 17.77544 | 3685 ft | 242 kts | 245° |
| 2026-05-01 09:02 | 59.56740 | 17.74623 | 4199 ft | 261 kts | 228° |
| 2026-05-01 09:02 | 59.55232 | 17.72625 | 5017 ft | 266 kts | 211° |
| 2026-05-01 09:03 | 59.53576 | 17.70931 | 5118 ft | 270 kts | 212° |
| 2026-05-01 09:03 | 59.51902 | 17.69234 | 5256 ft | 271 kts | 211° |
| 2026-05-01 09:03 | 59.50227 | 17.67552 | 5405 ft | 272 kts | 211° |
| 2026-05-01 09:03 | 59.48533 | 17.65873 | 5808 ft | 272 kts | 211° |
| 2026-05-01 09:04 | 59.46841 | 17.64204 | 6618 ft | 274 kts | 211° |
| 2026-05-01 09:04 | 59.45128 | 17.62517 | 7306 ft | 276 kts | 211° |
| 2026-05-01 09:04 | 59.43404 | 17.60824 | 8017 ft | 279 kts | 211° |
| 2026-05-01 09:04 | 59.41658 | 17.59111 | 8724 ft | 281 kts | 211° |
| 2026-05-01 09:05 | 59.39924 | 17.57411 | 9415 ft | 284 kts | 211° |
| 2026-05-01 09:05 | 59.38147 | 17.55674 | 10110 ft | 286 kts | 211° |
| 2026-05-01 09:05 | 59.36340 | 17.53908 | 10545 ft | 297 kts | 211° |
| 2026-05-01 09:05 | 59.34429 | 17.52043 | 10742 ft | 317 kts | 211° |
| 2026-05-01 09:06 | 59.32401 | 17.50065 | 10938 ft | 335 kts | 210° |
| 2026-05-01 09:06 | 59.30283 | 17.48004 | 11317 ft | 345 kts | 210° |
| 2026-05-01 09:06 | 59.28124 | 17.45908 | 11927 ft | 347 kts | 211° |
| 2026-05-01 09:06 | 59.25948 | 17.43796 | 12493 ft | 352 kts | 211° |
| 2026-05-01 09:07 | 59.23745 | 17.41661 | 13103 ft | 355 kts | 211° |
| 2026-05-01 09:07 | 59.21514 | 17.39504 | 13667 ft | 360 kts | 211° |
| 2026-05-01 09:07 | 59.19255 | 17.37322 | 14226 ft | 364 kts | 211° |
| 2026-05-01 09:07 | 59.16975 | 17.35122 | 14759 ft | 367 kts | 211° |
| 2026-05-01 09:08 | 59.14678 | 17.32911 | 15301 ft | 370 kts | 211° |
| 2026-05-01 09:08 | 59.12361 | 17.30682 | 15832 ft | 373 kts | 211° |
| 2026-05-01 09:08 | 59.10029 | 17.28441 | 16368 ft | 376 kts | 211° |
| 2026-05-01 09:08 | 59.07690 | 17.26142 | 16873 ft | 376 kts | 216° |
| 2026-05-01 09:09 | 59.05627 | 17.23073 | 17362 ft | 374 kts | 225° |
| 2026-05-01 09:09 | 59.03610 | 17.19842 | 17837 ft | 378 kts | 225° |
| 2026-05-01 09:09 | 59.01579 | 17.16582 | 18345 ft | 380 kts | 225° |
| 2026-05-01 09:09 | 58.99536 | 17.13296 | 18793 ft | 383 kts | 225° |
| 2026-05-01 09:10 | 58.97480 | 17.09990 | 19223 ft | 385 kts | 224° |
| 2026-05-01 09:10 | 58.95409 | 17.06664 | 19658 ft | 388 kts | 224° |
| 2026-05-01 09:10 | 58.93322 | 17.03318 | 20074 ft | 391 kts | 224° |
| 2026-05-01 09:10 | 58.91224 | 16.99957 | 20502 ft | 393 kts | 224° |
| 2026-05-01 09:11 | 58.89113 | 16.96582 | 20907 ft | 395 kts | 224° |
| 2026-05-01 09:11 | 58.86985 | 16.93186 | 21309 ft | 398 kts | 224° |
| 2026-05-01 09:11 | 58.84841 | 16.89770 | 21713 ft | 400 kts | 224° |
| 2026-05-01 09:11 | 58.82685 | 16.86341 | 22108 ft | 403 kts | 224° |
| 2026-05-01 09:12 | 58.80543 | 16.82937 | 22501 ft | 405 kts | 224° |
| 2026-05-01 09:12 | 58.78360 | 16.79477 | 22891 ft | 408 kts | 224° |
| 2026-05-01 09:12 | 58.76158 | 16.75992 | 23264 ft | 410 kts | 224° |
| 2026-05-01 09:12 | 58.73946 | 16.72496 | 23640 ft | 413 kts | 224° |
| 2026-05-01 09:13 | 58.71717 | 16.68981 | 23978 ft | 415 kts | 223° |
| 2026-05-01 09:13 | 58.69475 | 16.65449 | 24282 ft | 417 kts | 223° |
| 2026-05-01 09:13 | 58.67223 | 16.61909 | 24599 ft | 419 kts | 223° |
| 2026-05-01 09:13 | 58.64960 | 16.58358 | 24914 ft | 421 kts | 223° |
| 2026-05-01 09:14 | 58.62687 | 16.54795 | 25209 ft | 423 kts | 223° |
| 2026-05-01 09:14 | 58.60399 | 16.51217 | 25505 ft | 425 kts | 223° |
| 2026-05-01 09:14 | 58.58100 | 16.47630 | 25805 ft | 427 kts | 223° |
| 2026-05-01 09:14 | 58.55788 | 16.44028 | 26085 ft | 429 kts | 223° |
| 2026-05-01 09:15 | 58.53469 | 16.40421 | 26366 ft | 431 kts | 223° |
| 2026-05-01 09:15 | 58.51135 | 16.36795 | 26652 ft | 433 kts | 223° |
| 2026-05-01 09:15 | 58.48791 | 16.33162 | 26926 ft | 435 kts | 222° |
| 2026-05-01 09:15 | 58.46438 | 16.29522 | 27188 ft | 436 kts | 222° |
| 2026-05-01 09:16 | 58.44071 | 16.25865 | 27459 ft | 438 kts | 222° |
| 2026-05-01 09:16 | 58.41697 | 16.22204 | 27718 ft | 440 kts | 222° |
| 2026-05-01 09:16 | 58.39307 | 16.18526 | 27976 ft | 442 kts | 222° |
| 2026-05-01 09:17 | 58.34504 | 16.11156 | 28511 ft | 445 kts | 222° |
| 2026-05-01 09:17 | 58.32086 | 16.07453 | 28747 ft | 447 kts | 221° |
| 2026-05-01 09:17 | 58.27216 | 16.00019 | 29233 ft | 450 kts | 221° |
| 2026-05-01 09:18 | 58.24774 | 15.96301 | 29465 ft | 452 kts | 221° |
| 2026-05-01 09:18 | 58.19845 | 15.88818 | 29923 ft | 455 kts | 221° |
| 2026-05-01 09:19 | 58.14915 | 15.81360 | 30371 ft | 458 kts | 221° |
| 2026-05-01 09:19 | 58.12415 | 15.77588 | 30550 ft | 460 kts | 221° |
| 2026-05-01 09:19 | 58.09910 | 15.73816 | 30741 ft | 461 kts | 221° |
| 2026-05-01 09:20 | 58.04887 | 15.66274 | 31227 ft | 461 kts | 221° |
| 2026-05-01 09:20 | 57.99866 | 15.58790 | 31726 ft | 460 kts | 218° |
| 2026-05-01 09:21 | 57.94095 | 15.53821 | 32823 ft | 442 kts | 204° |
| 2026-05-01 09:21 | 57.91311 | 15.51780 | 33977 ft | 420 kts | 203° |
| 2026-05-01 09:21 | 57.85884 | 15.47889 | 34303 ft | 420 kts | 203° |
| 2026-05-01 09:22 | 57.74853 | 15.40099 | 34287 ft | 428 kts | 202° |
| 2026-05-01 09:23 | 57.66429 | 15.34187 | 34287 ft | 434 kts | 202° |
| 2026-05-01 09:24 | 57.57875 | 15.28214 | 34292 ft | 441 kts | 202° |
| 2026-05-01 09:25 | 57.46179 | 15.20096 | 34290 ft | 457 kts | 202° |
| 2026-05-01 09:26 | 57.37123 | 15.13847 | 34302 ft | 470 kts | 201° |
| 2026-05-01 09:26 | 57.27525 | 15.09507 | 34309 ft | 479 kts | 194° |
| 2026-05-01 09:27 | 57.17762 | 15.05423 | 34320 ft | 479 kts | 194° |
| 2026-05-01 09:28 | 57.11259 | 15.02717 | 34327 ft | 480 kts | 193° |
| 2026-05-01 09:28 | 57.04758 | 15.00021 | 34340 ft | 480 kts | 193° |
| 2026-05-01 09:29 | 56.94980 | 14.95984 | 34343 ft | 480 kts | 193° |
| 2026-05-01 09:30 | 56.85196 | 14.91966 | 34339 ft | 480 kts | 193° |
| 2026-05-01 09:30 | 56.75403 | 14.87966 | 34341 ft | 481 kts | 193° |
| 2026-05-01 09:31 | 56.68871 | 14.85309 | 34335 ft | 481 kts | 193° |
| 2026-05-01 09:32 | 56.59066 | 14.81341 | 34339 ft | 481 kts | 193° |
| 2026-05-01 09:32 | 56.49256 | 14.77390 | 34342 ft | 481 kts | 193° |
| 2026-05-01 09:33 | 56.42717 | 14.74768 | 34341 ft | 481 kts | 193° |
| 2026-05-01 09:34 | 56.34008 | 14.71291 | 34339 ft | 481 kts | 193° |
| 2026-05-01 09:34 | 56.24210 | 14.67399 | 34342 ft | 481 kts | 193° |
| 2026-05-01 09:35 | 56.14422 | 14.63531 | 34351 ft | 481 kts | 193° |
| 2026-05-01 09:36 | 56.07891 | 14.60961 | 34359 ft | 480 kts | 193° |
| 2026-05-01 09:36 | 56.01368 | 14.58402 | 34361 ft | 480 kts | 192° |
| 2026-05-01 09:37 | 55.94840 | 14.55851 | 34366 ft | 480 kts | 192° |
| 2026-05-01 09:37 | 55.85061 | 14.52046 | 34366 ft | 479 kts | 192° |
| 2026-05-01 09:38 | 55.75334 | 14.48281 | 34369 ft | 479 kts | 192° |
| 2026-05-01 09:39 | 55.65559 | 14.44516 | 34372 ft | 479 kts | 192° |
| 2026-05-01 09:39 | 55.59046 | 14.42019 | 34375 ft | 478 kts | 192° |
| 2026-05-01 09:40 | 55.49295 | 14.38295 | 34379 ft | 478 kts | 192° |
| 2026-05-01 09:41 | 55.42808 | 14.35828 | 34385 ft | 478 kts | 192° |
| 2026-05-01 09:41 | 55.33061 | 14.32137 | 34391 ft | 477 kts | 192° |
| 2026-05-01 09:42 | 55.26567 | 14.29689 | 34395 ft | 477 kts | 192° |
| 2026-05-01 09:43 | 55.13583 | 14.24816 | 34402 ft | 477 kts | 192° |
| 2026-05-01 09:43 | 55.07093 | 14.22392 | 34405 ft | 477 kts | 192° |
| 2026-05-01 09:44 | 54.97357 | 14.18770 | 34403 ft | 477 kts | 192° |
| 2026-05-01 09:45 | 54.90846 | 14.16574 | 34398 ft | 476 kts | 183° |
| 2026-05-01 09:45 | 54.80930 | 14.15625 | 34414 ft | 476 kts | 182° |
| 2026-05-01 09:46 | 54.74309 | 14.14984 | 34414 ft | 476 kts | 182° |
| 2026-05-01 09:46 | 54.67703 | 14.14348 | 34412 ft | 476 kts | 182° |
| 2026-05-01 09:47 | 54.61084 | 14.13711 | 34417 ft | 477 kts | 182° |
| 2026-05-01 09:47 | 54.54460 | 14.13076 | 34415 ft | 477 kts | 182° |
| 2026-05-01 09:48 | 54.47835 | 14.12445 | 34418 ft | 477 kts | 182° |
| 2026-05-01 09:48 | 54.41225 | 14.11816 | 34419 ft | 477 kts | 182° |
| 2026-05-01 09:49 | 54.34613 | 14.11189 | 34423 ft | 477 kts | 182° |
| 2026-05-01 09:49 | 54.27983 | 14.10562 | 34425 ft | 478 kts | 182° |
| 2026-05-01 09:50 | 54.21331 | 14.09991 | 34426 ft | 478 kts | 180° |
| 2026-05-01 09:50 | 54.14694 | 14.09679 | 34425 ft | 478 kts | 180° |
| 2026-05-01 09:51 | 54.08066 | 14.09338 | 34468 ft | 478 kts | 180° |
| 2026-05-01 09:51 | 54.01476 | 14.08998 | 34422 ft | 478 kts | 180° |
| 2026-05-01 09:52 | 53.94949 | 14.08663 | 34427 ft | 478 kts | 180° |
| 2026-05-01 09:52 | 53.89570 | 14.08388 | 34426 ft | 478 kts | 180° |
| 2026-05-01 09:53 | 53.82934 | 14.08049 | 34424 ft | 478 kts | 180° |
| 2026-05-01 09:53 | 53.76283 | 14.07710 | 34427 ft | 478 kts | 180° |
| 2026-05-01 09:54 | 53.69644 | 14.07374 | 34427 ft | 478 kts | 180° |
| 2026-05-01 09:54 | 53.63016 | 14.07038 | 34424 ft | 478 kts | 180° |
| 2026-05-01 09:55 | 53.56366 | 14.06703 | 34415 ft | 478 kts | 180° |
| 2026-05-01 09:55 | 53.49726 | 14.06369 | 34423 ft | 478 kts | 180° |
| 2026-05-01 09:56 | 53.43119 | 14.06038 | 34418 ft | 478 kts | 180° |
| 2026-05-01 09:56 | 53.36430 | 14.05705 | 34422 ft | 478 kts | 180° |
| 2026-05-01 09:57 | 53.29856 | 14.05377 | 34416 ft | 478 kts | 180° |
| 2026-05-01 09:57 | 53.23226 | 14.05048 | 34420 ft | 478 kts | 180° |
| 2026-05-01 09:58 | 53.16594 | 14.04719 | 34415 ft | 478 kts | 180° |
| 2026-05-01 09:58 | 53.09947 | 14.04392 | 34419 ft | 478 kts | 180° |
| 2026-05-01 09:59 | 53.03309 | 14.04065 | 34418 ft | 478 kts | 180° |
| 2026-05-01 09:59 | 52.96666 | 14.03739 | 34418 ft | 478 kts | 180° |
| 2026-05-01 10:00 | 52.90012 | 14.03414 | 34413 ft | 478 kts | 180° |
| 2026-05-01 10:00 | 52.83383 | 14.03091 | 34415 ft | 479 kts | 180° |
| 2026-05-01 10:01 | 52.76750 | 14.02769 | 34417 ft | 479 kts | 180° |
| 2026-05-01 10:01 | 52.70082 | 14.02445 | 34408 ft | 479 kts | 180° |
| 2026-05-01 10:02 | 52.63415 | 14.02124 | 34413 ft | 479 kts | 180° |
| 2026-05-01 10:02 | 52.56791 | 14.01805 | 34420 ft | 480 kts | 180° |
| 2026-05-01 10:03 | 52.50140 | 14.01486 | 34409 ft | 480 kts | 179° |
| 2026-05-01 10:03 | 52.43467 | 14.01167 | 34418 ft | 481 kts | 180° |
| 2026-05-01 10:04 | 52.36782 | 14.00848 | 34428 ft | 481 kts | 180° |
| 2026-05-01 10:04 | 52.30082 | 14.00529 | 34417 ft | 482 kts | 180° |
| 2026-05-01 10:05 | 52.23402 | 14.00213 | 34420 ft | 482 kts | 180° |
| 2026-05-01 10:05 | 52.16685 | 13.99895 | 34419 ft | 483 kts | 180° |
| 2026-05-01 10:06 | 52.09962 | 13.99579 | 34424 ft | 484 kts | 180° |
| 2026-05-01 10:06 | 52.03229 | 13.99262 | 34425 ft | 484 kts | 180° |
| 2026-05-01 10:07 | 51.96489 | 13.98946 | 34426 ft | 484 kts | 180° |
| 2026-05-01 10:07 | 51.89756 | 13.98631 | 34416 ft | 485 kts | 180° |
| 2026-05-01 10:08 | 51.79680 | 13.96954 | 34419 ft | 488 kts | 188° |
| 2026-05-01 10:09 | 51.72981 | 13.95004 | 34430 ft | 489 kts | 188° |
| 2026-05-01 10:09 | 51.66279 | 13.93043 | 34420 ft | 490 kts | 188° |
| 2026-05-01 10:10 | 51.59612 | 13.91098 | 34431 ft | 490 kts | 188° |
| 2026-05-01 10:10 | 51.49531 | 13.88168 | 34419 ft | 491 kts | 188° |
| 2026-05-01 10:11 | 51.42814 | 13.86048 | 34438 ft | 492 kts | 190° |
| 2026-05-01 10:11 | 51.36103 | 13.83823 | 34432 ft | 493 kts | 189° |
| 2026-05-01 10:12 | 51.30516 | 13.81987 | 34429 ft | 493 kts | 189° |
| 2026-05-01 10:13 | 51.19279 | 13.78308 | 34426 ft | 494 kts | 189° |
| 2026-05-01 10:13 | 51.12539 | 13.76111 | 34428 ft | 495 kts | 189° |
| 2026-05-01 10:14 | 51.02453 | 13.72835 | 34434 ft | 495 kts | 189° |
| 2026-05-01 10:14 | 50.95693 | 13.70646 | 34432 ft | 496 kts | 189° |
| 2026-05-01 10:15 | 50.88931 | 13.68465 | 34437 ft | 496 kts | 189° |
| 2026-05-01 10:15 | 50.82153 | 13.66284 | 34436 ft | 497 kts | 189° |
| 2026-05-01 10:16 | 50.75367 | 13.64107 | 34438 ft | 498 kts | 189° |
| 2026-05-01 10:17 | 50.65309 | 13.59828 | 34435 ft | 501 kts | 195° |
| 2026-05-01 10:17 | 50.55331 | 13.54972 | 34436 ft | 502 kts | 195° |
| 2026-05-01 10:18 | 50.45356 | 13.50133 | 34434 ft | 503 kts | 195° |
| 2026-05-01 10:19 | 50.38671 | 13.46906 | 34436 ft | 503 kts | 195° |
| 2026-05-01 10:19 | 50.31983 | 13.43680 | 34435 ft | 503 kts | 195° |
| 2026-05-01 10:20 | 50.21932 | 13.38856 | 34435 ft | 504 kts | 194° |
| 2026-05-01 10:20 | 50.15227 | 13.35647 | 34434 ft | 504 kts | 194° |
| 2026-05-01 10:21 | 50.05170 | 13.30741 | 34433 ft | 506 kts | 195° |
| 2026-05-01 10:22 | 49.96240 | 13.26309 | 34436 ft | 506 kts | 195° |
| 2026-05-01 10:23 | 49.85041 | 13.20780 | 34431 ft | 507 kts | 195° |
| 2026-05-01 10:23 | 49.76136 | 13.16402 | 34124 ft | 494 kts | 195° |
| 2026-05-01 10:24 | 49.69757 | 13.13277 | 32889 ft | 475 kts | 195° |
| 2026-05-01 10:24 | 49.63572 | 13.10255 | 31686 ft | 459 kts | 195° |
| 2026-05-01 10:25 | 49.57529 | 13.07310 | 30414 ft | 448 kts | 195° |
| 2026-05-01 10:25 | 49.51743 | 13.04498 | 29533 ft | 425 kts | 194° |
| 2026-05-01 10:26 | 49.48947 | 13.03141 | 29100 ft | 418 kts | 194° |
| 2026-05-01 10:26 | 49.46180 | 13.01800 | 28655 ft | 416 kts | 194° |
| 2026-05-01 10:26 | 49.40745 | 12.98889 | 27720 ft | 415 kts | 204° |
| 2026-05-01 10:27 | 49.35565 | 12.95095 | 26889 ft | 410 kts | 203° |
| 2026-05-01 10:27 | 49.30429 | 12.91357 | 26060 ft | 407 kts | 203° |
| 2026-05-01 10:28 | 49.27879 | 12.89503 | 25643 ft | 405 kts | 203° |
| 2026-05-01 10:28 | 49.22792 | 12.85811 | 24830 ft | 404 kts | 204° |
| 2026-05-01 10:28 | 49.20250 | 12.83966 | 24339 ft | 405 kts | 204° |
| 2026-05-01 10:29 | 49.15172 | 12.80286 | 23522 ft | 402 kts | 204° |
| 2026-05-01 10:29 | 49.12649 | 12.78461 | 23097 ft | 400 kts | 203° |
| 2026-05-01 10:30 | 49.07677 | 12.74870 | 22310 ft | 396 kts | 203° |
| 2026-05-01 10:30 | 49.02713 | 12.71297 | 21505 ft | 392 kts | 203° |
| 2026-05-01 10:31 | 48.97801 | 12.67769 | 20752 ft | 389 kts | 203° |
| 2026-05-01 10:31 | 48.92922 | 12.64273 | 19985 ft | 386 kts | 203° |
| 2026-05-01 10:32 | 48.88065 | 12.60806 | 19187 ft | 385 kts | 203° |
| 2026-05-01 10:32 | 48.85645 | 12.59084 | 18838 ft | 384 kts | 203° |
| 2026-05-01 10:32 | 48.80827 | 12.55660 | 18017 ft | 381 kts | 203° |
| 2026-05-01 10:33 | 48.76034 | 12.52358 | 17204 ft | 377 kts | 197° |
| 2026-05-01 10:33 | 48.71106 | 12.49738 | 16423 ft | 374 kts | 197° |
| 2026-05-01 10:34 | 48.68664 | 12.48409 | 16050 ft | 372 kts | 198° |
| 2026-05-01 10:34 | 48.66232 | 12.47076 | 15683 ft | 371 kts | 198° |
| 2026-05-01 10:34 | 48.63862 | 12.45587 | 15269 ft | 372 kts | 210° |
| 2026-05-01 10:35 | 48.60704 | 12.39669 | 14570 ft | 366 kts | 255° |
| 2026-05-01 10:35 | 48.60275 | 12.35921 | 14246 ft | 361 kts | 265° |
| 2026-05-01 10:35 | 48.59992 | 12.32151 | 13822 ft | 361 kts | 265° |
| 2026-05-01 10:35 | 48.59713 | 12.28386 | 13404 ft | 360 kts | 265° |
| 2026-05-01 10:36 | 48.59439 | 12.20922 | 12811 ft | 351 kts | 269° |
| 2026-05-01 10:36 | 48.59307 | 12.17257 | 12529 ft | 348 kts | 268° |
| 2026-05-01 10:36 | 48.59173 | 12.13622 | 12232 ft | 345 kts | 268° |
| 2026-05-01 10:37 | 48.59039 | 12.10067 | 11926 ft | 342 kts | 268° |
| 2026-05-01 10:37 | 48.58768 | 12.02973 | 11367 ft | 336 kts | 267° |
| 2026-05-01 10:37 | 48.58631 | 11.99461 | 11068 ft | 334 kts | 268° |
| 2026-05-01 10:38 | 48.58496 | 11.95960 | 10779 ft | 333 kts | 268° |
| 2026-05-01 10:38 | 48.58358 | 11.92475 | 10476 ft | 332 kts | 267° |
| 2026-05-01 10:38 | 48.58219 | 11.89011 | 10221 ft | 329 kts | 267° |
| 2026-05-01 10:38 | 48.58083 | 11.85585 | 9921 ft | 326 kts | 267° |
| 2026-05-01 10:39 | 48.57945 | 11.82171 | 9601 ft | 325 kts | 266° |
| 2026-05-01 10:39 | 48.57807 | 11.78769 | 9332 ft | 323 kts | 267° |
| 2026-05-01 10:39 | 48.57670 | 11.75394 | 9050 ft | 321 kts | 266° |
| 2026-05-01 10:39 | 48.57532 | 11.72042 | 8785 ft | 318 kts | 266° |
| 2026-05-01 10:40 | 48.57395 | 11.68715 | 8518 ft | 316 kts | 267° |
| 2026-05-01 10:40 | 48.57261 | 11.65436 | 8251 ft | 314 kts | 266° |
| 2026-05-01 10:40 | 48.56838 | 11.62239 | 7921 ft | 311 kts | 243° |
| 2026-05-01 10:40 | 48.55556 | 11.59715 | 7597 ft | 299 kts | 214° |
| 2026-05-01 10:41 | 48.53752 | 11.58382 | 7322 ft | 282 kts | 191° |
| 2026-05-01 10:41 | 48.51898 | 11.57564 | 7116 ft | 272 kts | 194° |
| 2026-05-01 10:41 | 48.48416 | 11.55956 | 6761 ft | 256 kts | 192° |
| 2026-05-01 10:42 | 48.46705 | 11.55188 | 6512 ft | 257 kts | 192° |
| 2026-05-01 10:42 | 48.45003 | 11.54432 | 6198 ft | 259 kts | 192° |
| 2026-05-01 10:42 | 48.43298 | 11.53674 | 5965 ft | 256 kts | 191° |
| 2026-05-01 10:42 | 48.41611 | 11.52931 | 5786 ft | 254 kts | 192° |
| 2026-05-01 10:43 | 48.39943 | 11.52193 | 5533 ft | 254 kts | 191° |
| 2026-05-01 10:43 | 48.38239 | 11.51646 | 5227 ft | 249 kts | 175° |
| 2026-05-01 10:43 | 48.36573 | 11.52167 | 4823 ft | 247 kts | 150° |
| 2026-05-01 10:43 | 48.35271 | 11.53769 | 4517 ft | 243 kts | 122° |
| 2026-05-01 10:44 | 48.34608 | 11.56060 | 4241 ft | 242 kts | 98° |
| 2026-05-01 10:44 | 48.34722 | 11.58498 | 4029 ft | 229 kts | 75° |
| 2026-05-01 10:44 | 48.35079 | 11.60698 | 3859 ft | 218 kts | 82° |
| 2026-05-01 10:44 | 48.35216 | 11.62955 | 3444 ft | 214 kts | 83° |
| 2026-05-01 10:45 | 48.35380 | 11.65116 | 3102 ft | 200 kts | 84° |
| 2026-05-01 10:45 | 48.35534 | 11.67101 | 2869 ft | 183 kts | 83° |
| 2026-05-01 10:45 | 48.35668 | 11.68866 | 2608 ft | 156 kts | 84° |
| 2026-05-01 10:45 | 48.35774 | 11.70244 | 2455 ft | 148 kts | 84° |
| 2026-05-01 10:46 | 48.35892 | 11.71638 | 2218 ft | 146 kts | 84° |
| 2026-05-01 10:46 | 48.36008 | 11.73138 | 2005 ft | 144 kts | 84° |
| 2026-05-01 10:46 | 48.36099 | 11.74627 | 1842 ft | 139 kts | 84° |
| 2026-05-01 10:46 | 48.36220 | 11.76110 | 1629 ft | 147 kts | 84° |
| 2026-05-01 10:47 | 48.36340 | 11.77603 | 1485 ft | 135 kts | 84° |
| 2026-05-01 10:47 | 48.36426 | 11.78710 | 1478 ft | 75 kts | 83° |
| 2026-05-01 10:47 | 48.36443 | 11.79244 | 1485 ft | 43 kts | 101° |
| 2026-05-01 10:47 | 48.36361 | 11.79568 | 1481 ft | 24 kts | 113° |
| 2026-05-01 10:48 | 48.36309 | 11.79748 | 1488 ft | 7 kts | 114° |
| 2026-05-01 10:48 | 48.36288 | 11.79815 | 1477 ft | 6 kts | 128° |
| 2026-05-01 10:48 | 48.36276 | 11.79822 | 1484 ft | 1 kts | 184° |
| 2026-05-01 10:48 | 48.36268 | 11.79818 | 1486 ft | 2 kts | 203° |
| 2026-05-01 10:49 | 48.36251 | 11.79797 | 1485 ft | 4 kts | 231° |
| 2026-05-01 10:49 | 48.36235 | 11.79740 | 1477 ft | 7 kts | 256° |
| 2026-05-01 10:49 | 48.36225 | 11.79630 | 1488 ft | 15 kts | 262° |
| 2026-05-01 10:49 | 48.36212 | 11.79443 | 1479 ft | 21 kts | 263° |
| 2026-05-01 10:50 | 48.36191 | 11.79203 | 1477 ft | 26 kts | 262° |
| 2026-05-01 10:50 | 48.36169 | 11.78874 | 1488 ft | 34 kts | 264° |
| 2026-05-01 10:50 | 48.36141 | 11.78516 | 1488 ft | 33 kts | 263° |
| 2026-05-01 10:50 | 48.36114 | 11.78177 | 1488 ft | 33 kts | 264° |
| 2026-05-01 10:51 | 48.36087 | 11.77838 | 1479 ft | 33 kts | 266° |
| 2026-05-01 10:51 | 48.36075 | 11.77675 | 1476 ft | 0 kts | 244° |
| 2026-05-01 10:51 | 48.36061 | 11.77659 | 1483 ft | 7 kts | 204° |
| 2026-05-01 10:51 | 48.35990 | 11.77672 | 1488 ft | 13 kts | 172° |
| 2026-05-01 10:52 | 48.35910 | 11.77685 | 1481 ft | 8 kts | 173° |
| 2026-05-01 10:52 | 48.35861 | 11.77694 | 1477 ft | 4 kts | 173° |
| 2026-05-01 10:52 | 48.35828 | 11.77700 | 1488 ft | 5 kts | 173° |
| 2026-05-01 10:52 | 48.35818 | 11.77701 | 1477 ft | 0 kts | 173° |
| 2026-05-01 10:54 | 48.35816 | 11.77702 | 1478 ft | 1 kts | 173° |
| 2026-05-01 10:54 | 48.35813 | 11.77702 | 1480 ft | 0 kts | 173° |
| 2026-05-01 10:54 | 48.35800 | 11.77704 | 1483 ft | 5 kts | 175° |
| 2026-05-01 10:54 | 48.35755 | 11.77693 | 1488 ft | 7 kts | 195° |
| 2026-05-01 10:55 | 48.35692 | 11.77695 | 1477 ft | 18 kts | 171° |
| 2026-05-01 10:55 | 48.35495 | 11.77735 | 1475 ft | 32 kts | 175° |
| 2026-05-01 10:55 | 48.35332 | 11.77758 | 1488 ft | 17 kts | 174° |
| 2026-05-01 10:55 | 48.35244 | 11.77774 | 1486 ft | 3 kts | 173° |
| 2026-05-01 10:56 | 48.35236 | 11.77770 | 1488 ft | 1 kts | 210° |
| 2026-05-01 10:56 | 48.35226 | 11.77744 | 1477 ft | 3 kts | 257° |
| 2026-05-01 10:56 | 48.35223 | 11.77711 | 1479 ft | 2 kts | 264° |
| 2026-05-01 10:56 | 48.35223 | 11.77707 | 1479 ft | 0 kts | 264° |